Paris Orly, France

4:07 AM CET on November 29, 2014 (GMT +0100)
Yerres - FRANCE | Change Station
CLOSE
Current Station
Personal Weather Station
Location: Yerres, �LE-DE-FRANCE
Elevation: 118 ft
Nearby Weather Stations

Elev 118 ft 48.71 °N, 2.48 °E | Updated 4 seconds ago

Clear
Clear
46.4 °F
Feels Like 43 °F
N
6.9
Wind Variable Wind from North
Gusts 6.9 mph

Today
High -- | Low -- °F
--% Chance of Precip.
Yesterday
High -- | Low -- °F
Precip. -- in
8:19 AM 4:57 PM
Waxing Crescent, 47% visible
Pressure 29.74 in
Visibility -9999.0 miles
Clouds
Windchill 43 °F
Dew Point 41 °F
Humidity 80%
Rainfall 0.00 in
Snow Depth Not available.
UV 0.0 out of 12
Pollen Not available.
Air Quality Not available.
Flu Activity Not available.
METAR LFPO 290300Z 09007KT CAVOK 08/05 Q1007 NOSIG

More Conditions Fewer Conditions

Pressure 29.74 in
Visibility -9999.0 miles
Clouds
Windchill 43 °F
Dew Point 41 °F
Humidity 80%
Rainfall 0.00 in
Snow Depth Not available.
UV 0.0 out of 12
Pollen Not available.
Air Quality Not available.
Flu Activity Not available.
METAR LFPO 290300Z 09007KT CAVOK 08/05 Q1007 NOSIG

More Conditions Fewer Conditions

10-Day Weather Forecast

Almanac

Astronomy

Nov. 29, 2014 Rise Set
Actual Time
Civil Twilight
Nautical Twilight
Astronomical Twilight
Moon
Length of Visible Light
Length of Day
Tomorrow will be .
, % of the Moon is Illuminated

Today's Extremes

Country Highs Country Lows

Community

WunderPhotos

Upload Photos

1,774,381 photos uploaded!

WunderBlogs® & News

Nearby

Air Quality

  Air Quality AQ Index Pollutant
Not available.

Snow Depth

Station Depth Elevation

Earthquake Activity

City Distance Mag. Time & Date
Minimum magnitude displayed is 2.5.

Coastal Water Temperatures

Place Temperature

Nearby Weather Stations